Time;durP1;ratioP1;P1;durP2;ratioP2;P2;SDS_P1;SDS_P2;PMS_P1;PMS_P2;Temp;Humidity;BMP_temperature;BMP_pressure;BME280_temperature;BME280_humidity;BME280_pressure;Samples;Min_cycle;Max_cycle;Signal;HPM_P1;HPM_P2
2021/07/18 00:01:07;;;;;;;;;7.25;7.25;;;;;;;;5058298;28;47121;-81
2021/07/18 00:03:32;;;;;;;;;5.25;5.25;;;;;;;;5058162;28;46905;-81
2021/07/18 00:05:57;;;;;;;;;5.75;5.75;;;;;;;;5058421;28;46980;-81
2021/07/18 00:08:23;;;;;;;;;6.25;5.75;;;;;;;;5058435;28;47063;-81
2021/07/18 00:10:49;;;;;;;;;8.50;7.75;;;;;;;;5057772;28;46950;-81
2021/07/18 00:13:14;;;;;;;;;7.00;7.00;;;;;;;;5057927;28;46826;-81
2021/07/18 00:15:40;;;;;;;;;7.00;6.50;;;;;;;;5058196;28;46881;-81
2021/07/18 00:18:05;;;;;;;;;7.00;7.00;;;;;;;;5058285;28;47301;-80
2021/07/18 00:20:31;;;;;;;;;9.00;9.00;;;;;;;;5059571;28;46943;-81
2021/07/18 00:22:56;;;;;;;;;7.00;6.00;;;;;;;;5063195;28;47191;-80
2021/07/18 00:25:21;;;;;;;;;6.50;6.50;;;;;;;;5057985;28;47025;-80
2021/07/18 00:27:46;;;;;;;;;9.75;9.75;;;;;;;;5056795;28;47208;-80
2021/07/18 00:30:12;;;;;;;;;7.75;7.75;;;;;;;;5058053;28;47831;-80
2021/07/18 00:32:37;;;;;;;;;9.00;8.75;;;;;;;;5040037;28;46947;-81
2021/07/18 00:35:04;;;;;;;;;8.00;6.50;;;;;;;;5052457;28;46825;-81
2021/07/18 00:37:29;;;;;;;;;8.00;7.50;;;;;;;;5057864;28;47008;-81
2021/07/18 00:39:54;;;;;;;;;9.00;6.50;;;;;;;;5057580;28;48046;-81
2021/07/18 00:42:20;;;;;;;;;8.00;7.00;;;;;;;;5039421;28;47763;-81
2021/07/18 00:44:46;;;;;;;;;11.25;9.25;;;;;;;;5057911;28;47009;-80
2021/07/18 00:47:12;;;;;;;;;6.00;6.00;;;;;;;;5057786;28;47083;-80
2021/07/18 00:49:37;;;;;;;;;7.00;6.00;;;;;;;;5039409;28;48833;-80
2021/07/18 00:52:03;;;;;;;;;7.75;6.75;;;;;;;;5057648;28;46882;-80
2021/07/18 00:54:28;;;;;;;;;9.00;7.50;;;;;;;;5057261;28;47024;-81
2021/07/18 00:56:54;;;;;;;;;7.75;6.00;;;;;;;;5057747;28;46953;-81
2021/07/18 00:59:19;;;;;;;;;11.75;10.00;;;;;;;;5057172;28;46818;-81
2021/07/18 01:01:45;;;;;;;;;8.00;8.00;;;;;;;;5057551;28;47051;-80
2021/07/18 01:04:10;;;;;;;;;11.75;9.25;;;;;;;;5057429;28;47046;-80
2021/07/18 01:06:36;;;;;;;;;7.25;7.25;;;;;;;;5039432;28;46914;-80
2021/07/18 01:09:02;;;;;;;;;8.75;8.00;;;;;;;;5057019;28;46968;-80
2021/07/18 01:11:27;;;;;;;;;8.00;6.50;;;;;;;;5057358;28;46889;-80
2021/07/18 01:13:53;;;;;;;;;9.75;9.25;;;;;;;;5057205;28;47110;-80
2021/07/18 01:16:18;;;;;;;;;9.25;8.75;;;;;;;;5057784;28;46822;-80
2021/07/18 01:18:43;;;;;;;;;7.50;7.50;;;;;;;;5056995;28;48248;-79
2021/07/18 01:21:09;;;;;;;;;7.25;7.00;;;;;;;;5045783;28;46935;-80
2021/07/18 01:23:37;;;;;;;;;7.00;7.00;;;;;;;;5039866;28;47083;-81
2021/07/18 01:26:02;;;;;;;;;11.00;8.00;;;;;;;;5057361;28;46965;-81
2021/07/18 01:28:28;;;;;;;;;9.25;8.00;;;;;;;;5057013;28;48065;-81
2021/07/18 01:30:53;;;;;;;;;8.25;7.50;;;;;;;;5057311;28;47076;-80
2021/07/18 01:33:18;;;;;;;;;10.00;9.25;;;;;;;;5045048;28;46921;-81
2021/07/18 01:35:44;;;;;;;;;13.25;10.50;;;;;;;;5064556;28;46878;-80
2021/07/18 01:38:10;;;;;;;;;14.00;10.00;;;;;;;;5056919;28;47754;-81
2021/07/18 01:40:35;;;;;;;;;12.00;10.00;;;;;;;;5060386;28;47274;-80
2021/07/18 01:43:02;;;;;;;;;7.75;7.00;;;;;;;;5060425;28;46976;-81
2021/07/18 01:45:27;;;;;;;;;14.25;12.75;;;;;;;;5042472;28;47301;-81
2021/07/18 01:47:52;;;;;;;;;14.50;9.75;;;;;;;;5060148;28;46856;-81
2021/07/18 01:50:18;;;;;;;;;12.25;11.00;;;;;;;;5060438;28;47027;-81
2021/07/18 01:52:44;;;;;;;;;9.00;7.75;;;;;;;;5060231;28;47087;-81
2021/07/18 01:55:10;;;;;;;;;11.50;11.25;;;;;;;;5060449;28;46766;-81
2021/07/18 01:57:35;;;;;;;;;10.00;9.25;;;;;;;;5041691;28;49308;-80
2021/07/18 02:00:01;;;;;;;;;9.00;8.75;;;;;;;;5060459;28;46736;-80
2021/07/18 02:02:26;;;;;;;;;7.75;7.00;;;;;;;;5060041;28;47139;-80
2021/07/18 02:04:51;;;;;;;;;10.50;9.25;;;;;;;;5060652;28;47129;-80
2021/07/18 02:07:17;;;;;;;;;14.00;10.75;;;;;;;;5041795;28;47572;-80
2021/07/18 02:09:43;;;;;;;;;9.75;7.75;;;;;;;;5059876;28;47101;-80
2021/07/18 02:12:09;;;;;;;;;10.25;9.25;;;;;;;;5041566;28;47463;-81
2021/07/18 02:14:35;;;;;;;;;11.25;8.00;;;;;;;;5060332;28;47029;-81
2021/07/18 02:17:00;;;;;;;;;9.50;8.50;;;;;;;;5059872;28;46999;-80
2021/07/18 02:19:29;;;;;;;;;7.75;7.75;;;;;;;;5059846;28;47017;-80
2021/07/18 02:21:54;;;;;;;;;10.50;10.50;;;;;;;;5066996;28;46940;-80
2021/07/18 02:24:19;;;;;;;;;8.25;7.25;;;;;;;;5059933;28;46900;-80
2021/07/18 02:26:45;;;;;;;;;13.75;10.25;;;;;;;;5059600;28;47679;-80
2021/07/18 02:29:10;;;;;;;;;12.50;10.75;;;;;;;;5041543;28;47992;-80
2021/07/18 02:31:35;;;;;;;;;10.50;6.25;;;;;;;;5041555;28;47568;-80
2021/07/18 02:34:01;;;;;;;;;10.50;9.25;;;;;;;;5053919;28;47125;-80
2021/07/18 02:36:26;;;;;;;;;12.25;10.00;;;;;;;;5060649;28;46949;-80
2021/07/18 02:38:54;;;;;;;;;13.75;12.00;;;;;;;;5059608;28;46921;-80
2021/07/18 02:41:19;;;;;;;;;10.25;9.50;;;;;;;;5059498;28;47006;-81
2021/07/18 02:43:44;;;;;;;;;10.25;9.75;;;;;;;;5059704;28;47339;-81
2021/07/18 02:46:10;;;;;;;;;10.25;8.50;;;;;;;;5059229;28;46939;-81
2021/07/18 02:48:35;;;;;;;;;11.00;10.25;;;;;;;;5059709;28;46966;-81
2021/07/18 02:51:01;;;;;;;;;11.25;8.25;;;;;;;;5058408;28;46936;-81
2021/07/18 02:53:26;;;;;;;;;12.00;9.75;;;;;;;;5059788;28;46971;-80
2021/07/18 02:55:51;;;;;;;;;12.00;10.50;;;;;;;;5058938;28;46958;-80
2021/07/18 02:58:16;;;;;;;;;10.75;8.75;;;;;;;;5059428;28;47059;-80
2021/07/18 03:00:42;;;;;;;;;9.50;8.50;;;;;;;;5059311;28;46820;-80
2021/07/18 03:03:07;;;;;;;;;10.50;8.00;;;;;;;;5041321;28;46817;-80
2021/07/18 03:05:33;;;;;;;;;9.00;8.00;;;;;;;;5059063;28;47020;-80
2021/07/18 03:07:58;;;;;;;;;9.75;6.75;;;;;;;;5059239;28;46961;-80
2021/07/18 03:10:24;;;;;;;;;10.50;7.75;;;;;;;;5058712;28;46897;-80
2021/07/18 03:12:49;;;;;;;;;8.75;7.75;;;;;;;;5041091;28;47044;-80
2021/07/18 03:15:15;;;;;;;;;10.00;7.75;;;;;;;;5040694;28;47282;-80
2021/07/18 03:17:41;;;;;;;;;10.75;10.50;;;;;;;;5059109;28;46800;-80
2021/07/18 03:20:08;;;;;;;;;10.50;8.75;;;;;;;;5058883;28;46802;-80
2021/07/18 03:22:33;;;;;;;;;10.50;9.75;;;;;;;;5048485;28;47043;-80
2021/07/18 03:25:03;;;;;;;;;9.00;9.00;;;;;;;;5040300;28;47004;-80
2021/07/18 03:27:28;;;;;;;;;8.75;8.75;;;;;;;;5040522;28;47382;-80
2021/07/18 03:29:53;;;;;;;;;8.00;7.50;;;;;;;;5058841;28;46913;-80
2021/07/18 03:32:19;;;;;;;;;9.75;9.75;;;;;;;;5059382;28;46980;-80
2021/07/18 03:34:44;;;;;;;;;8.00;7.50;;;;;;;;5053444;28;48234;-80
2021/07/18 03:37:09;;;;;;;;;9.00;9.00;;;;;;;;5058791;28;46912;-81
2021/07/18 03:39:34;;;;;;;;;11.50;9.00;;;;;;;;5058328;28;46802;-81
2021/07/18 03:42:00;;;;;;;;;6.75;5.50;;;;;;;;5040762;28;46823;-81
2021/07/18 03:44:25;;;;;;;;;9.25;8.25;;;;;;;;5040053;28;47366;-81
2021/07/18 03:46:51;;;;;;;;;11.75;9.50;;;;;;;;5058591;28;46809;-81
2021/07/18 03:49:16;;;;;;;;;8.00;6.50;;;;;;;;5040340;28;46922;-81
2021/07/18 03:51:42;;;;;;;;;10.25;9.50;;;;;;;;5058717;28;46814;-81
2021/07/18 03:54:07;;;;;;;;;10.25;9.25;;;;;;;;5058059;28;47108;-81
2021/07/18 03:56:32;;;;;;;;;9.50;6.75;;;;;;;;5058456;28;47031;-81
2021/07/18 03:58:58;;;;;;;;;11.50;10.50;;;;;;;;5058307;28;46875;-81
2021/07/18 04:01:23;;;;;;;;;9.25;8.00;;;;;;;;5058436;28;46989;-81
2021/07/18 04:03:48;;;;;;;;;8.50;7.25;;;;;;;;5039967;28;49518;-81
2021/07/18 04:06:14;;;;;;;;;10.75;9.75;;;;;;;;5058192;28;46965;-81
2021/07/18 04:08:40;;;;;;;;;8.00;6.75;;;;;;;;5058246;28;46972;-80
2021/07/18 04:11:05;;;;;;;;;9.50;8.00;;;;;;;;5039883;28;46878;-80
2021/07/18 04:13:30;;;;;;;;;8.75;7.50;;;;;;;;5058026;28;47862;-80
2021/07/18 04:15:55;;;;;;;;;7.50;7.50;;;;;;;;5058026;28;47050;-80
2021/07/18 04:18:21;;;;;;;;;2.25;2.25;;;;;;;;5058215;28;47023;-80
2021/07/18 04:20:46;;;;;;;;;6.50;6.25;;;;;;;;5061970;28;46964;-80
2021/07/18 04:23:12;;;;;;;;;3.75;2.25;;;;;;;;5060392;28;46940;-80
2021/07/18 04:25:37;;;;;;;;;2.50;1.75;;;;;;;;5039609;28;46924;-80
2021/07/18 04:28:02;;;;;;;;;7.25;3.50;;;;;;;;5057832;28;46818;-80
2021/07/18 04:30:28;;;;;;;;;4.00;3.00;;;;;;;;5058402;28;46804;-80
2021/07/18 04:32:53;;;;;;;;;0.00;0.00;;;;;;;;5042507;27;48412;-80
2021/07/18 04:35:20;;;;;;;;;13.00;10.75;;;;;;;;5068404;28;46849;-80
2021/07/18 04:37:45;;;;;;;;;11.75;9.00;;;;;;;;5057831;28;46915;-80
2021/07/18 04:40:11;;;;;;;;;10.75;10.75;;;;;;;;5057925;28;46835;-80
2021/07/18 04:42:37;;;;;;;;;9.50;9.00;;;;;;;;5057675;28;47932;-80
2021/07/18 04:45:02;;;;;;;;;12.00;11.50;;;;;;;;5057979;28;46866;-80
2021/07/18 04:47:27;;;;;;;;;13.75;11.00;;;;;;;;5039520;28;47000;-80
2021/07/18 04:49:53;;;;;;;;;11.50;9.25;;;;;;;;5057990;28;46937;-80
2021/07/18 04:52:18;;;;;;;;;11.50;9.00;;;;;;;;5057517;28;47954;-80
2021/07/18 04:54:44;;;;;;;;;9.00;7.75;;;;;;;;5057539;28;46958;-80
2021/07/18 04:57:09;;;;;;;;;9.75;9.25;;;;;;;;5057663;28;46865;-80
2021/07/18 04:59:35;;;;;;;;;11.75;9.00;;;;;;;;5057845;28;46899;-80
2021/07/18 05:02:00;;;;;;;;;9.00;8.00;;;;;;;;5057425;28;48152;-80
2021/07/18 05:04:25;;;;;;;;;8.50;8.50;;;;;;;;5065802;28;46986;-80
2021/07/18 05:06:51;;;;;;;;;13.25;12.25;;;;;;;;5063002;28;47002;-80
2021/07/18 05:09:17;;;;;;;;;10.00;9.00;;;;;;;;5057616;28;46819;-80
2021/07/18 05:11:43;;;;;;;;;9.00;9.00;;;;;;;;5038866;28;49332;-80
2021/07/18 05:14:08;;;;;;;;;10.25;9.75;;;;;;;;5058810;28;46939;-80
2021/07/18 05:16:33;;;;;;;;;9.25;9.00;;;;;;;;5060943;28;46845;-80
2021/07/18 05:18:59;;;;;;;;;6.75;6.00;;;;;;;;5061300;28;46771;-80
2021/07/18 05:21:24;;;;;;;;;10.00;9.50;;;;;;;;5050357;28;48208;-80
2021/07/18 05:23:49;;;;;;;;;8.50;6.00;;;;;;;;5060825;28;47004;-80
2021/07/18 05:26:15;;;;;;;;;8.25;8.25;;;;;;;;5060891;28;46887;-80
2021/07/18 05:28:40;;;;;;;;;10.00;8.00;;;;;;;;5060979;28;46896;-80
2021/07/18 05:31:05;;;;;;;;;9.00;7.50;;;;;;;;5060727;28;47043;-80
2021/07/18 05:33:31;;;;;;;;;8.00;7.00;;;;;;;;5068724;27;46797;-80
2021/07/18 05:35:56;;;;;;;;;10.50;9.50;;;;;;;;5066326;28;46777;-80
2021/07/18 05:38:21;;;;;;;;;10.50;8.75;;;;;;;;5042677;28;46793;-81
2021/07/18 05:40:47;;;;;;;;;8.25;7.25;;;;;;;;5060273;28;47004;-80
2021/07/18 05:43:12;;;;;;;;;7.75;7.75;;;;;;;;5060357;28;46912;-80
2021/07/18 05:45:37;;;;;;;;;9.00;9.00;;;;;;;;5060616;28;46956;-80
2021/07/18 05:48:03;;;;;;;;;8.50;7.00;;;;;;;;5060921;28;46932;-82
2021/07/18 05:50:29;;;;;;;;;6.50;6.50;;;;;;;;5060396;28;47010;-80
2021/07/18 05:52:54;;;;;;;;;7.75;6.00;;;;;;;;5060495;28;47070;-80
2021/07/18 05:55:21;;;;;;;;;9.50;7.50;;;;;;;;5060040;28;46996;-80
2021/07/18 05:57:46;;;;;;;;;9.50;8.50;;;;;;;;5060569;28;47039;-80
2021/07/18 06:00:12;;;;;;;;;8.00;6.50;;;;;;;;5060158;28;47862;-80
2021/07/18 06:02:38;;;;;;;;;11.25;9.50;;;;;;;;5060625;28;47057;-80
2021/07/18 06:05:04;;;;;;;;;5.25;5.25;;;;;;;;5060173;28;46814;-80
2021/07/18 06:07:29;;;;;;;;;6.50;5.50;;;;;;;;5060293;28;46701;-80
2021/07/18 06:09:54;;;;;;;;;5.75;4.75;;;;;;;;5059838;28;46867;-80
2021/07/18 06:12:20;;;;;;;;;4.75;4.75;;;;;;;;5059853;28;46783;-80
2021/07/18 06:14:45;;;;;;;;;5.50;4.50;;;;;;;;5060035;28;46799;-80
2021/07/18 06:17:11;;;;;;;;;7.50;5.75;;;;;;;;5041973;28;46877;-80
2021/07/18 06:19:36;;;;;;;;;8.50;8.50;;;;;;;;5059902;28;46924;-80
2021/07/18 06:22:02;;;;;;;;;6.00;4.75;;;;;;;;5067436;28;46788;-80
2021/07/18 06:24:27;;;;;;;;;6.75;6.75;;;;;;;;5041061;28;46976;-80
2021/07/18 06:26:52;;;;;;;;;9.25;7.50;;;;;;;;5040871;28;47169;-81
2021/07/18 06:29:18;;;;;;;;;8.25;7.00;;;;;;;;5059618;28;47027;-81
2021/07/18 06:31:43;;;;;;;;;9.00;7.25;;;;;;;;5059578;28;47004;-81
2021/07/18 06:34:08;;;;;;;;;6.50;5.50;;;;;;;;5073168;27;47254;-81
2021/07/18 06:36:34;;;;;;;;;5.75;5.75;;;;;;;;5059973;28;47070;-80
2021/07/18 06:39:01;;;;;;;;;5.75;5.75;;;;;;;;5041150;28;50007;-80
2021/07/18 06:41:26;;;;;;;;;9.50;7.00;;;;;;;;5059611;28;46886;-80
2021/07/18 06:43:51;;;;;;;;;5.75;5.25;;;;;;;;5059661;28;47032;-80
2021/07/18 06:46:17;;;;;;;;;5.75;5.75;;;;;;;;5059714;28;46945;-81
2021/07/18 06:48:42;;;;;;;;;4.75;4.25;;;;;;;;5059675;28;47906;-80
2021/07/18 06:51:07;;;;;;;;;5.75;5.75;;;;;;;;5041243;28;46982;-81
2021/07/18 06:53:32;;;;;;;;;4.75;4.00;;;;;;;;5041304;28;47102;-80
2021/07/18 06:55:58;;;;;;;;;5.25;5.00;;;;;;;;5041216;28;47205;-81
2021/07/18 06:58:23;;;;;;;;;7.00;5.75;;;;;;;;5059088;28;46868;-81
2021/07/18 07:00:48;;;;;;;;;7.00;4.25;;;;;;;;5073022;28;46951;-81
2021/07/18 07:03:14;;;;;;;;;3.00;3.00;;;;;;;;5059467;28;47056;-81
2021/07/18 07:05:40;;;;;;;;;2.50;2.50;;;;;;;;5059367;28;47051;-81
2021/07/18 07:08:05;;;;;;;;;4.75;4.50;;;;;;;;5059288;28;48158;-80
2021/07/18 07:10:31;;;;;;;;;1.00;1.00;;;;;;;;5058620;28;46973;-80
2021/07/18 07:12:56;;;;;;;;;2.25;2.25;;;;;;;;5059125;28;46901;-80
2021/07/18 07:15:21;;;;;;;;;3.50;3.50;;;;;;;;5059261;28;46957;-80
2021/07/18 07:17:47;;;;;;;;;5.00;4.00;;;;;;;;5058914;28;46991;-81
2021/07/18 07:20:13;;;;;;;;;5.75;5.75;;;;;;;;5058803;28;46807;-81
2021/07/18 07:22:39;;;;;;;;;6.00;5.00;;;;;;;;5065855;28;47119;-80
2021/07/18 07:25:05;;;;;;;;;3.75;2.50;;;;;;;;5058768;28;46964;-80
2021/07/18 07:27:31;;;;;;;;;5.50;5.00;;;;;;;;5058779;28;47071;-80
2021/07/18 07:29:56;;;;;;;;;5.00;5.00;;;;;;;;5058675;28;46872;-80
2021/07/18 07:32:21;;;;;;;;;5.00;4.50;;;;;;;;5059061;28;47044;-80
2021/07/18 07:34:46;;;;;;;;;5.50;4.00;;;;;;;;5072549;27;46952;-81
2021/07/18 07:37:12;;;;;;;;;3.00;3.00;;;;;;;;5039964;28;47836;-80
2021/07/18 07:39:40;;;;;;;;;4.00;4.00;;;;;;;;5058395;28;47221;-80
2021/07/18 07:42:05;;;;;;;;;4.50;4.00;;;;;;;;5058834;28;46909;-81
2021/07/18 07:44:30;;;;;;;;;4.00;4.00;;;;;;;;5058748;28;46798;-81
2021/07/18 07:46:56;;;;;;;;;5.00;3.75;;;;;;;;5058717;28;46896;-80
2021/07/18 07:49:21;;;;;;;;;3.50;3.50;;;;;;;;5058620;28;47083;-80
2021/07/18 07:51:46;;;;;;;;;2.00;2.00;;;;;;;;5058677;28;46951;-80
2021/07/18 07:54:12;;;;;;;;;6.00;5.00;;;;;;;;5058423;28;46796;-80
2021/07/18 07:56:37;;;;;;;;;3.00;3.00;;;;;;;;5058291;28;47075;-80
2021/07/18 07:59:02;;;;;;;;;1.75;1.75;;;;;;;;5058324;28;47212;-80
2021/07/18 08:01:28;;;;;;;;;5.00;4.00;;;;;;;;5058461;28;47109;-80
2021/07/18 08:03:53;;;;;;;;;5.50;5.50;;;;;;;;5058432;28;47024;-80
2021/07/18 08:06:19;;;;;;;;;2.25;2.25;;;;;;;;5040278;28;47033;-80
2021/07/18 08:08:44;;;;;;;;;3.00;3.00;;;;;;;;5057901;28;47066;-80
2021/07/18 08:11:09;;;;;;;;;2.25;2.25;;;;;;;;5058078;28;46980;-80
2021/07/18 08:13:35;;;;;;;;;3.25;3.25;;;;;;;;5058105;28;47233;-80
2021/07/18 08:16:02;;;;;;;;;2.00;2.00;;;;;;;;5058100;28;48397;-80
2021/07/18 08:18:27;;;;;;;;;3.75;3.00;;;;;;;;5057971;28;46784;-80
2021/07/18 08:20:53;;;;;;;;;5.50;3.50;;;;;;;;5062750;28;47302;-80
2021/07/18 08:23:18;;;;;;;;;2.25;2.25;;;;;;;;5061603;28;47345;-81
2021/07/18 08:25:43;;;;;;;;;1.75;1.75;;;;;;;;5057778;28;47005;-80
2021/07/18 08:28:09;;;;;;;;;3.25;3.25;;;;;;;;5039518;28;46940;-80
2021/07/18 08:30:35;;;;;;;;;3.00;2.75;;;;;;;;5058048;28;46860;-81
2021/07/18 08:33:01;;;;;;;;;2.00;2.00;;;;;;;;5061877;27;47258;-81
2021/07/18 08:35:26;;;;;;;;;3.50;3.50;;;;;;;;5067616;28;46882;-81
2021/07/18 08:37:51;;;;;;;;;3.75;3.00;;;;;;;;5057760;28;46972;-80
2021/07/18 08:40:17;;;;;;;;;2.00;2.00;;;;;;;;5057870;28;46849;-80
2021/07/18 08:42:42;;;;;;;;;2.00;2.00;;;;;;;;5057728;28;47250;-80
2021/07/18 08:45:09;;;;;;;;;3.00;3.00;;;;;;;;5039429;28;47094;-80
2021/07/18 08:47:34;;;;;;;;;2.00;2.00;;;;;;;;5057413;28;46878;-80
2021/07/18 08:50:00;;;;;;;;;2.00;2.00;;;;;;;;5057091;28;46982;-80
2021/07/18 08:52:25;;;;;;;;;4.00;2.75;;;;;;;;5057586;28;47111;-80
2021/07/18 08:54:51;;;;;;;;;2.75;2.75;;;;;;;;5057557;28;47736;-80
2021/07/18 08:57:17;;;;;;;;;2.00;2.00;;;;;;;;5057259;28;46881;-80
2021/07/18 08:59:42;;;;;;;;;2.75;2.75;;;;;;;;5039419;28;46844;-81
2021/07/18 09:02:08;;;;;;;;;4.00;2.00;;;;;;;;5057721;28;46844;-80
2021/07/18 09:04:33;;;;;;;;;2.50;2.50;;;;;;;;5057712;28;46801;-81
2021/07/18 09:07:03;;;;;;;;;2.75;2.75;;;;;;;;5057311;28;46867;-81
2021/07/18 09:09:30;;;;;;;;;4.50;3.50;;;;;;;;5039034;28;46893;-80
2021/07/18 09:11:59;;;;;;;;;2.00;1.00;;;;;;;;5057468;28;46821;-81
2021/07/18 09:14:32;;;;;;;;;2.00;2.00;;;;;;;;5057247;28;47068;-81
2021/07/18 09:16:57;;;;;;;;;2.00;2.00;;;;;;;;5038958;28;47754;-81
2021/07/18 09:19:29;;;;;;;;;2.25;2.25;;;;;;;;5057345;28;46912;-81
2021/07/18 09:21:57;;;;;;;;;2.00;2.00;;;;;;;;5064728;28;47147;-81
2021/07/18 09:24:24;;;;;;;;;1.50;1.50;;;;;;;;5056868;28;47690;-81
2021/07/18 09:27:04;;;;;;;;;2.00;2.00;;;;;;;;5057197;28;46837;-81
2021/07/18 09:29:29;;;;;;;;;4.50;2.00;;;;;;;;5056986;28;46928;-81
2021/07/18 09:32:06;;;;;;;;;2.00;2.00;;;;;;;;5057687;28;46906;-80
2021/07/18 09:34:35;;;;;;;;;1.75;1.25;;;;;;;;5070532;28;46951;-81
2021/07/18 09:37:04;;;;;;;;;2.00;2.00;;;;;;;;5057095;28;47005;-81
2021/07/18 09:39:30;;;;;;;;;1.00;1.00;;;;;;;;5056708;28;46840;-81
2021/07/18 09:41:57;;;;;;;;;3.00;1.50;;;;;;;;5039105;28;47216;-81
2021/07/18 09:44:23;;;;;;;;;2.00;1.00;;;;;;;;5056744;28;46893;-81
2021/07/18 09:46:48;;;;;;;;;1.25;1.25;;;;;;;;5038714;28;46920;-81
2021/07/18 09:49:30;;;;;;;;;2.00;2.00;;;;;;;;5056835;28;46883;-80
2021/07/18 09:52:10;;;;;;;;;2.75;2.00;;;;;;;;5057145;28;47004;-80
2021/07/18 09:54:35;;;;;;;;;2.00;1.00;;;;;;;;5064700;28;46891;-80
2021/07/18 09:57:01;;;;;;;;;2.50;2.25;;;;;;;;5058724;28;47917;-81
2021/07/18 09:59:26;;;;;;;;;2.00;1.00;;;;;;;;5077375;28;46995;-81
2021/07/18 10:01:54;;;;;;;;;2.75;2.75;;;;;;;;5080816;28;46845;-81
2021/07/18 10:04:20;;;;;;;;;2.00;1.00;;;;;;;;5080476;28;47195;-81
2021/07/18 10:06:45;;;;;;;;;3.00;3.00;;;;;;;;5061808;28;47441;-81
2021/07/18 10:09:12;;;;;;;;;4.25;2.50;;;;;;;;5080347;28;47016;-82
2021/07/18 10:11:38;;;;;;;;;3.00;2.00;;;;;;;;5080443;28;46861;-81
2021/07/18 10:14:05;;;;;;;;;2.50;1.50;;;;;;;;5061862;28;48480;-81
2021/07/18 10:16:32;;;;;;;;;1.00;1.00;;;;;;;;5080117;28;46866;-81
2021/07/18 10:18:57;;;;;;;;;2.00;2.00;;;;;;;;5080467;28;47085;-81
2021/07/18 10:21:24;;;;;;;;;1.75;1.75;;;;;;;;5078458;28;47063;-81
2021/07/18 10:23:51;;;;;;;;;1.25;1.25;;;;;;;;5041558;28;48745;-81
2021/07/18 10:26:21;;;;;;;;;2.50;2.00;;;;;;;;5041417;28;47376;-81
2021/07/18 10:28:47;;;;;;;;;4.25;3.00;;;;;;;;5041524;28;46927;-81
2021/07/18 10:31:16;;;;;;;;;2.00;2.00;;;;;;;;5059861;28;47049;-81
2021/07/18 10:33:43;;;;;;;;;2.25;1.00;;;;;;;;5049596;28;48646;-81
2021/07/18 10:36:09;;;;;;;;;3.75;3.25;;;;;;;;5063311;28;47119;-81
2021/07/18 10:38:35;;;;;;;;;4.00;2.00;;;;;;;;5059731;28;46800;-81
2021/07/18 10:41:01;;;;;;;;;2.00;2.00;;;;;;;;5059691;28;47295;-81
2021/07/18 10:43:38;;;;;;;;;2.00;2.00;;;;;;;;5059580;28;47820;-81
2021/07/18 10:46:11;;;;;;;;;2.00;2.00;;;;;;;;5059361;28;47132;-81
2021/07/18 10:48:55;;;;;;;;;2.00;2.00;;;;;;;;5059721;28;46901;-82
2021/07/18 10:51:33;;;;;;;;;3.25;3.25;;;;;;;;5068684;28;46864;-82
2021/07/18 10:54:06;;;;;;;;;3.50;3.00;;;;;;;;5075869;28;46994;-81
2021/07/18 10:56:44;;;;;;;;;2.25;2.25;;;;;;;;5041221;28;47099;-81
2021/07/18 10:59:29;;;;;;;;;3.00;2.50;;;;;;;;5059116;28;46994;-81
2021/07/18 11:02:04;;;;;;;;;4.00;3.25;;;;;;;;5041046;28;46947;-81
2021/07/18 11:04:48;;;;;;;;;2.25;2.25;;;;;;;;5059352;28;47013;-82
2021/07/18 11:07:16;;;;;;;;;5.00;4.25;;;;;;;;5040873;28;48172;-82
2021/07/18 11:09:45;;;;;;;;;3.00;3.00;;;;;;;;5040864;28;47126;-80
2021/07/18 11:12:21;;;;;;;;;4.00;4.00;;;;;;;;5064968;28;46814;-82
2021/07/18 11:14:46;;;;;;;;;4.75;4.00;;;;;;;;5079241;28;47014;-82
2021/07/18 11:17:25;;;;;;;;;3.00;3.00;;;;;;;;5079147;28;46886;-82
2021/07/18 11:19:55;;;;;;;;;5.75;3.75;;;;;;;;5079318;28;47152;-82
2021/07/18 11:22:40;;;;;;;;;4.50;3.50;;;;;;;;5068782;28;46782;-82
2021/07/18 11:25:06;;;;;;;;;4.75;4.00;;;;;;;;5058359;28;48024;-83
2021/07/18 11:27:33;;;;;;;;;4.25;4.25;;;;;;;;5040505;28;47004;-82
2021/07/18 11:30:03;;;;;;;;;4.25;4.00;;;;;;;;5058717;28;47012;-82
2021/07/18 11:32:29;;;;;;;;;4.25;4.25;;;;;;;;5059123;28;46815;-81
2021/07/18 11:34:55;;;;;;;;;5.25;4.50;;;;;;;;5072118;27;47204;-82
2021/07/18 11:37:24;;;;;;;;;4.00;4.00;;;;;;;;5058662;28;47084;-82
2021/07/18 11:39:50;;;;;;;;;6.00;4.00;;;;;;;;5065333;28;46897;-81
2021/07/18 11:42:16;;;;;;;;;5.00;5.00;;;;;;;;5079122;28;47170;-81
2021/07/18 11:44:43;;;;;;;;;5.00;4.50;;;;;;;;5078770;28;46903;-81
2021/07/18 11:47:12;;;;;;;;;3.00;3.00;;;;;;;;5078895;28;47104;-82
2021/07/18 11:49:40;;;;;;;;;4.25;4.25;;;;;;;;5078749;28;47026;-81
2021/07/18 11:52:05;;;;;;;;;4.25;4.25;;;;;;;;5060605;28;46790;-83
2021/07/18 11:54:31;;;;;;;;;4.75;4.75;;;;;;;;5078339;28;46933;-82
2021/07/18 11:56:57;;;;;;;;;5.00;5.00;;;;;;;;5078538;28;47098;-82
2021/07/18 11:59:23;;;;;;;;;3.75;3.00;;;;;;;;5078763;28;46897;-82
2021/07/18 12:01:49;;;;;;;;;4.75;4.75;;;;;;;;5078627;28;46948;-82
2021/07/18 12:04:16;;;;;;;;;10.00;5.75;;;;;;;;5078612;28;47056;-82
2021/07/18 12:06:41;;;;;;;;;6.00;4.25;;;;;;;;5078378;28;46894;-82
2021/07/18 12:09:14;;;;;;;;;3.50;3.50;;;;;;;;5060040;28;46832;-82
2021/07/18 12:11:40;;;;;;;;;5.00;4.25;;;;;;;;5078493;28;46818;-82
2021/07/18 12:14:06;;;;;;;;;6.00;6.00;;;;;;;;5078386;28;47866;-82
2021/07/18 12:16:31;;;;;;;;;8.75;6.00;;;;;;;;5078285;28;46833;-82
2021/07/18 12:18:57;;;;;;;;;5.00;5.00;;;;;;;;5060248;28;47558;-82
2021/07/18 12:21:22;;;;;;;;;8.75;8.00;;;;;;;;5059148;28;47213;-82
2021/07/18 12:24:06;;;;;;;;;8.00;6.50;;;;;;;;5057769;28;47631;-82
2021/07/18 12:26:31;;;;;;;;;6.00;6.00;;;;;;;;5057932;28;46881;-82
2021/07/18 12:29:04;;;;;;;;;4.50;4.50;;;;;;;;5039622;28;47160;-82
2021/07/18 12:31:30;;;;;;;;;7.00;5.00;;;;;;;;5039743;28;47245;-82
2021/07/18 12:33:55;;;;;;;;;4.25;4.25;;;;;;;;5069278;27;47197;-83
2021/07/18 12:36:20;;;;;;;;;5.75;5.75;;;;;;;;5059555;28;47019;-83
2021/07/18 12:38:46;;;;;;;;;4.50;4.00;;;;;;;;5057707;28;46886;-83
2021/07/18 12:41:11;;;;;;;;;4.50;4.50;;;;;;;;5057737;28;47104;-83
2021/07/18 12:43:38;;;;;;;;;5.75;5.75;;;;;;;;5057611;28;46925;-82
2021/07/18 12:46:03;;;;;;;;;4.50;4.00;;;;;;;;5057469;28;46931;-82
2021/07/18 12:48:28;;;;;;;;;4.00;4.00;;;;;;;;5039506;28;46972;-83
2021/07/18 12:50:54;;;;;;;;;6.50;5.25;;;;;;;;5057592;28;46925;-85
2021/07/18 12:53:20;;;;;;;;;5.00;4.50;;;;;;;;5039089;28;48240;-83
2021/07/18 12:55:49;;;;;;;;;4.75;4.00;;;;;;;;5057503;28;47090;-83
2021/07/18 12:58:25;;;;;;;;;4.25;4.25;;;;;;;;5057511;28;46920;-83
2021/07/18 13:01:10;;;;;;;;;2.75;2.75;;;;;;;;5039533;28;47034;-83
2021/07/18 13:03:37;;;;;;;;;3.00;3.00;;;;;;;;5057350;28;47067;-83
2021/07/18 13:06:06;;;;;;;;;6.00;4.75;;;;;;;;5039266;28;47136;-84
2021/07/18 13:08:35;;;;;;;;;5.00;4.25;;;;;;;;5057128;28;46937;-82
2021/07/18 13:11:01;;;;;;;;;4.25;4.25;;;;;;;;5039547;28;47064;-83
2021/07/18 13:13:33;;;;;;;;;4.00;4.00;;;;;;;;5057000;28;46832;-82
2021/07/18 13:15:59;;;;;;;;;4.50;3.00;;;;;;;;5057320;28;46957;-82
2021/07/18 13:18:31;;;;;;;;;6.00;4.75;;;;;;;;5057308;28;46786;-82
2021/07/18 13:21:08;;;;;;;;;5.75;5.75;;;;;;;;5044428;28;47207;-83
2021/07/18 13:23:33;;;;;;;;;4.00;4.00;;;;;;;;5058011;28;46992;-82
2021/07/18 13:25:58;;;;;;;;;3.25;3.25;;;;;;;;5057280;28;46826;-83
2021/07/18 13:28:26;;;;;;;;;5.25;4.25;;;;;;;;5057029;28;46928;-83
2021/07/18 13:30:52;;;;;;;;;5.75;3.75;;;;;;;;5057411;28;46814;-83
2021/07/18 13:33:20;;;;;;;;;4.50;3.00;;;;;;;;5045028;28;48970;-82
2021/07/18 13:35:46;;;;;;;;;4.00;2.00;;;;;;;;5066442;28;46893;-83
2021/07/18 13:38:23;;;;;;;;;5.25;4.75;;;;;;;;5060461;28;47004;-84
2021/07/18 13:40:49;;;;;;;;;7.50;5.25;;;;;;;;5060734;28;47240;-85
2021/07/18 13:43:15;;;;;;;;;6.00;6.00;;;;;;;;5042225;28;47513;-83
2021/07/18 13:45:48;;;;;;;;;6.25;5.00;;;;;;;;5060511;28;46932;-83
2021/07/18 13:48:20;;;;;;;;;3.50;3.25;;;;;;;;5060665;28;46920;-83
2021/07/18 13:50:45;;;;;;;;;4.00;4.00;;;;;;;;5060524;28;47162;-83
2021/07/18 13:53:11;;;;;;;;;6.00;5.00;;;;;;;;5060502;28;47626;-83
2021/07/18 13:55:37;;;;;;;;;5.00;5.00;;;;;;;;5060006;28;47012;-84
2021/07/18 13:58:03;;;;;;;;;6.75;4.00;;;;;;;;5042237;28;46930;-84
2021/07/18 14:00:29;;;;;;;;;5.00;5.00;;;;;;;;5060662;28;47127;-83
2021/07/18 14:02:54;;;;;;;;;4.25;3.75;;;;;;;;5060556;28;46932;-85
2021/07/18 14:05:20;;;;;;;;;6.25;4.50;;;;;;;;5060089;28;46999;-84
2021/07/18 14:07:45;;;;;;;;;5.00;5.00;;;;;;;;5042226;28;46781;-83
2021/07/18 14:10:12;;;;;;;;;4.25;3.50;;;;;;;;5059906;28;46709;-83
2021/07/18 14:12:39;;;;;;;;;5.25;4.00;;;;;;;;5059754;28;47006;-83
2021/07/18 14:15:06;;;;;;;;;7.50;4.00;;;;;;;;5060121;28;47036;-83
2021/07/18 14:17:31;;;;;;;;;6.00;4.00;;;;;;;;5060065;28;46951;-82
2021/07/18 14:19:56;;;;;;;;;4.50;4.50;;;;;;;;5059978;28;46881;-83
2021/07/18 14:22:21;;;;;;;;;4.50;4.25;;;;;;;;5067677;28;47040;-83
2021/07/18 14:24:47;;;;;;;;;4.25;3.50;;;;;;;;5041428;28;46980;-84
2021/07/18 14:27:12;;;;;;;;;8.50;5.00;;;;;;;;5059813;28;46879;-83
2021/07/18 14:29:38;;;;;;;;;7.00;5.00;;;;;;;;5060041;28;46862;-83
2021/07/18 14:32:03;;;;;;;;;7.00;5.75;;;;;;;;5041621;28;47965;-83
2021/07/18 14:34:28;;;;;;;;;7.00;5.00;;;;;;;;5073469;28;46933;-83
2021/07/18 14:36:54;;;;;;;;;6.00;4.75;;;;;;;;5059990;28;46947;-84